createdAt,value
2022-12-24T00:01:29.498Z,68.90
2022-12-24T00:04:32.942Z,105.53
2022-12-24T00:07:37.583Z,115.88
2022-12-24T00:10:42.183Z,98.78
2022-12-24T00:13:50.251Z,90.80
2022-12-24T00:16:58.919Z,155.02
2022-12-24T00:20:06.153Z,75.20
2022-12-24T00:26:23.337Z,46.47
2022-12-24T00:29:31.904Z,77.80
2022-12-24T00:32:36.812Z,68.88
2022-12-24T00:35:42.976Z,69.68
2022-12-24T00:38:48.715Z,59.47
2022-12-24T00:41:52.426Z,71.30
2022-12-24T00:44:56.455Z,60.90
2022-12-24T00:48:00.163Z,76.97
2022-12-24T00:51:04.267Z,90.90
2022-12-24T00:54:08.177Z,90.05
2022-12-24T00:57:12.412Z,41.92
2022-12-24T01:00:18.405Z,69.35
2022-12-24T01:03:22.573Z,107.07
2022-12-24T01:06:26.192Z,67.22
2022-12-24T01:09:30.405Z,45.75
2022-12-24T01:12:37.750Z,80.47
2022-12-24T01:15:41.421Z,84.10
2022-12-24T01:18:45.319Z,79.30
2022-12-24T01:21:49.947Z,98.10
2022-12-24T01:24:59.355Z,83.95
2022-12-24T01:28:03.369Z,112.90
2022-12-24T01:31:19.577Z,68.32
2022-12-24T01:34:22.919Z,145.27
2022-12-24T01:37:27.009Z,97.40
2022-12-24T01:40:49.067Z,72.63
2022-12-24T01:43:52.964Z,105.88
2022-12-24T01:47:02.727Z,93.32
2022-12-24T01:50:16.771Z,101.18
2022-12-24T01:53:19.925Z,131.93
2022-12-24T01:56:23.642Z,122.30
2022-12-24T01:59:26.973Z,57.78
2022-12-24T02:02:34.325Z,127.13
2022-12-24T02:05:48.577Z,149.35
2022-12-24T02:08:52.626Z,82.93
2022-12-24T02:11:57.658Z,83.50
2022-12-24T02:15:02.783Z,90.40
2022-12-24T02:18:25.693Z,106.93
2022-12-24T02:21:43.989Z,73.00
2022-12-24T02:25:18.699Z,99.28
2022-12-24T02:28:49.523Z,132.07
2022-12-24T02:32:20.194Z,160.80
2022-12-24T02:35:44.122Z,166.25
2022-12-24T02:39:03.528Z,152.52
2022-12-24T02:42:10.034Z,213.32
2022-12-24T02:45:18.531Z,203.07
2022-12-24T02:48:25.021Z,176.18
2022-12-24T02:51:28.674Z,257.02
2022-12-24T02:54:33.516Z,328.85
2022-12-24T02:58:01.258Z,257.92
2022-12-24T03:01:47.788Z,236.88
2022-12-24T03:05:22.688Z,148.35
2022-12-24T03:08:56.475Z,125.20
2022-12-24T03:12:05.810Z,211.60
2022-12-24T03:15:10.917Z,127.20
2022-12-24T03:18:19.011Z,140.52
2022-12-24T03:21:28.574Z,132.90
2022-12-24T03:24:32.562Z,154.73
2022-12-24T03:27:38.222Z,154.77
2022-12-24T03:30:48.876Z,236.00
2022-12-24T03:33:53.192Z,169.50
2022-12-24T03:36:58.239Z,161.35
2022-12-24T03:40:01.831Z,191.80
2022-12-24T03:43:06.319Z,161.40
2022-12-24T03:46:12.441Z,126.38
2022-12-24T03:49:17.337Z,115.75
2022-12-24T03:52:22.128Z,95.70
2022-12-24T03:55:26.149Z,120.75
2022-12-24T03:58:30.869Z,123.13
2022-12-24T04:01:35.630Z,130.07
2022-12-24T04:04:41.073Z,73.95
2022-12-24T04:07:46.383Z,62.65
2022-12-24T04:10:51.228Z,77.68
2022-12-24T04:13:57.085Z,78.75
2022-12-24T04:17:02.184Z,76.53
2022-12-24T04:20:09.259Z,57.17
2022-12-24T04:23:15.474Z,59.08
2022-12-24T04:26:23.397Z,58.05
2022-12-24T04:29:31.700Z,58.88
2022-12-24T04:32:41.265Z,55.85
2022-12-24T04:35:52.028Z,45.33
2022-12-24T04:39:02.593Z,43.33
2022-12-24T04:42:14.404Z,36.92
2022-12-24T04:45:26.762Z,25.15
2022-12-24T04:48:38.191Z,31.75
2022-12-24T04:51:50.331Z,33.78
2022-12-24T04:55:00.554Z,52.55
2022-12-24T04:58:11.115Z,40.38
2022-12-24T05:01:28.533Z,77.18
2022-12-24T05:04:44.443Z,41.45
2022-12-24T05:07:54.503Z,49.10
2022-12-24T05:11:07.114Z,42.08
2022-12-24T05:14:20.574Z,48.58
2022-12-24T05:17:33.912Z,62.22
2022-12-24T05:20:45.996Z,55.97
2022-12-24T05:24:15.609Z,66.20
2022-12-24T05:27:27.093Z,60.55
2022-12-24T05:30:39.054Z,52.30
2022-12-24T05:33:51.196Z,47.40
2022-12-24T05:37:03.913Z,46.78
2022-12-24T05:40:15.201Z,72.47
2022-12-24T05:43:30.791Z,58.92
2022-12-24T05:46:43.407Z,92.20
2022-12-24T05:49:56.326Z,56.30
2022-12-24T05:53:08.015Z,65.55
2022-12-24T05:56:28.434Z,56.55
2022-12-24T05:59:39.489Z,52.85
2022-12-24T06:02:53.513Z,68.47
2022-12-24T06:06:07.411Z,66.45
2022-12-24T06:09:21.541Z,54.33
2022-12-24T06:12:35.177Z,57.58
2022-12-24T06:15:49.059Z,73.85
2022-12-24T06:19:01.644Z,54.30
2022-12-24T06:22:15.697Z,60.80
2022-12-24T06:25:27.172Z,68.32
2022-12-24T06:28:41.250Z,66.45
2022-12-24T06:31:53.859Z,66.32
2022-12-24T06:35:06.449Z,53.28
2022-12-24T06:38:20.200Z,56.40
2022-12-24T06:41:34.773Z,61.03
2022-12-24T06:44:47.389Z,74.75
2022-12-24T06:48:01.742Z,52.78
2022-12-24T06:51:14.463Z,56.25
2022-12-24T06:54:27.884Z,75.40
2022-12-24T06:57:41.237Z,60.28
2022-12-24T07:00:55.776Z,65.75
2022-12-24T07:04:12.013Z,105.22
2022-12-24T07:07:29.210Z,89.25
2022-12-24T07:10:42.354Z,64.22
2022-12-24T07:13:55.384Z,57.25
2022-12-24T07:17:07.958Z,74.82
2022-12-24T07:20:20.803Z,49.13
2022-12-24T07:23:33.928Z,72.88
2022-12-24T07:26:48.687Z,61.22
2022-12-24T07:30:01.728Z,100.18
2022-12-24T07:33:15.352Z,89.20
2022-12-24T07:36:30.024Z,91.20
2022-12-24T07:39:44.076Z,60.78
2022-12-24T07:42:55.576Z,70.45
2022-12-24T07:46:08.516Z,86.32
2022-12-24T07:49:19.870Z,94.88
2022-12-24T07:52:34.129Z,82.03
2022-12-24T07:55:45.508Z,76.15
2022-12-24T07:58:58.130Z,126.75
2022-12-24T08:02:14.269Z,133.02
2022-12-24T08:05:31.461Z,123.82
2022-12-24T08:08:44.172Z,109.68
2022-12-24T08:11:57.393Z,105.68
2022-12-24T08:15:08.880Z,133.95
2022-12-24T08:18:21.402Z,156.55
2022-12-24T08:21:32.368Z,93.70
2022-12-24T08:24:43.688Z,87.60
2022-12-24T08:27:55.044Z,146.23
2022-12-24T08:31:11.102Z,141.40
2022-12-24T08:34:24.382Z,141.95
2022-12-24T08:37:38.627Z,77.15
2022-12-24T08:40:54.321Z,97.88
2022-12-24T08:47:18.216Z,89.10
2022-12-24T08:50:29.919Z,49.13
2022-12-24T08:53:42.424Z,105.78
2022-12-24T08:56:55.652Z,89.85
2022-12-24T09:00:10.319Z,99.38
2022-12-24T09:03:27.697Z,88.93
2022-12-24T09:06:39.960Z,86.00
2022-12-24T09:09:51.596Z,143.95
2022-12-24T09:13:02.340Z,120.97
2022-12-24T09:16:13.043Z,148.95
2022-12-24T09:19:23.248Z,148.70
2022-12-24T09:22:34.747Z,112.50
2022-12-24T09:25:48.892Z,128.82
2022-12-24T09:29:03.654Z,103.32
2022-12-24T09:32:16.115Z,134.00
2022-12-24T09:35:28.861Z,115.85
2022-12-24T09:38:42.229Z,134.40
2022-12-24T09:42:24.328Z,132.27
2022-12-24T09:45:39.121Z,131.00
2022-12-24T09:48:57.334Z,99.85
2022-12-24T09:52:14.153Z,130.07
2022-12-24T09:55:29.944Z,123.25
2022-12-24T09:58:46.256Z,130.10
2022-12-24T10:02:00.072Z,104.95
2022-12-24T10:05:18.550Z,123.20
2022-12-24T10:08:57.172Z,131.20
2022-12-24T10:12:26.680Z,139.88
2022-12-24T10:16:06.142Z,123.95
2022-12-24T10:19:28.169Z,117.18
2022-12-24T10:22:53.165Z,109.50
2022-12-24T10:26:22.387Z,117.18
2022-12-24T10:29:46.189Z,103.95
2022-12-24T10:33:00.511Z,110.55
2022-12-24T10:36:15.899Z,113.07
2022-12-24T10:39:30.340Z,124.57
2022-12-24T10:42:51.511Z,123.35
2022-12-24T10:46:15.977Z,123.88
2022-12-24T10:49:50.897Z,167.18
2022-12-24T10:53:17.545Z,111.00
2022-12-24T10:56:30.873Z,110.03
2022-12-24T10:59:44.512Z,112.57
2022-12-24T11:03:10.185Z,116.13
2022-12-24T11:06:26.739Z,97.18
2022-12-24T11:09:40.124Z,103.05
2022-12-24T11:13:35.140Z,133.38
2022-12-24T11:16:29.478Z,84.57
2022-12-24T11:19:43.417Z,87.63
2022-12-24T11:22:56.964Z,105.20
2022-12-24T11:26:09.000Z,97.25
2022-12-24T11:29:31.641Z,98.78
2022-12-24T11:32:42.951Z,82.95
2022-12-24T11:35:59.507Z,81.95
2022-12-24T11:42:30.687Z,80.00
2022-12-24T11:46:39.349Z,106.35
2022-12-24T11:50:31.797Z,127.55
2022-12-24T11:54:05.165Z,107.55
2022-12-24T11:57:24.429Z,147.38
2022-12-24T12:00:38.371Z,133.27
2022-12-24T12:04:10.181Z,130.15
2022-12-24T12:07:34.049Z,176.80
2022-12-24T12:10:48.947Z,112.18
2022-12-24T12:14:04.092Z,94.25
2022-12-24T12:17:42.052Z,133.75
2022-12-24T12:21:05.091Z,101.40
2022-12-24T12:24:21.150Z,153.48
2022-12-24T12:27:46.911Z,103.73
2022-12-24T12:31:08.077Z,69.80
2022-12-24T12:34:31.607Z,100.45
2022-12-24T12:37:42.703Z,131.27
2022-12-24T12:41:31.035Z,117.15
2022-12-24T12:45:03.424Z,120.18
2022-12-24T12:48:25.790Z,107.90
2022-12-24T12:51:59.109Z,101.15
2022-12-24T12:55:07.850Z,142.32
2022-12-24T12:58:31.081Z,207.23
2022-12-24T13:02:11.985Z,214.43
2022-12-24T13:05:33.664Z,168.40
2022-12-24T13:09:03.043Z,226.20
2022-12-24T13:12:33.023Z,297.58
2022-12-24T13:16:13.488Z,281.13
2022-12-24T13:19:17.648Z,313.58
2022-12-24T13:22:23.052Z,324.23
2022-12-24T13:25:48.918Z,403.80
2022-12-24T13:32:20.768Z,200.02
2022-12-24T13:35:23.684Z,315.08
2022-12-24T13:38:31.526Z,358.77
2022-12-24T13:41:39.484Z,262.40
2022-12-24T13:44:46.184Z,340.85
2022-12-24T13:47:51.168Z,325.50
2022-12-24T13:51:00.492Z,270.48
2022-12-24T13:54:03.981Z,272.10
2022-12-24T13:57:36.447Z,334.05
2022-12-24T14:00:44.150Z,291.77
2022-12-24T14:03:59.173Z,277.55
2022-12-24T14:07:07.591Z,221.45
2022-12-24T14:10:22.851Z,159.23
2022-12-24T14:13:41.931Z,145.52
2022-12-24T14:16:53.930Z,176.80
2022-12-24T14:23:47.720Z,170.38
2022-12-24T14:26:56.229Z,174.90
2022-12-24T14:30:17.040Z,185.45
2022-12-24T14:33:33.938Z,177.80
2022-12-24T14:36:38.483Z,133.80
2022-12-24T14:43:33.061Z,177.23
2022-12-24T14:46:36.017Z,189.30
2022-12-24T14:49:48.594Z,137.35
2022-12-24T14:53:13.418Z,143.63
2022-12-24T14:56:23.375Z,148.77
2022-12-24T14:59:29.338Z,150.52
2022-12-24T15:02:52.800Z,124.60
2022-12-24T15:06:00.470Z,118.18
2022-12-24T15:09:04.033Z,95.00
2022-12-24T15:12:12.777Z,121.95
2022-12-24T15:15:20.836Z,105.68
2022-12-24T15:18:34.845Z,96.75
2022-12-24T15:21:45.107Z,122.90
2022-12-24T15:24:49.123Z,113.88
2022-12-24T15:27:53.156Z,95.00
2022-12-24T15:31:15.999Z,94.63
2022-12-24T15:34:37.305Z,112.03
2022-12-24T15:37:43.332Z,113.65
2022-12-24T15:40:50.540Z,137.60
2022-12-24T15:44:00.091Z,133.07
2022-12-24T15:47:08.343Z,213.48
2022-12-24T15:50:17.694Z,145.50
2022-12-24T15:53:27.953Z,147.98
2022-12-24T15:56:50.977Z,193.45
2022-12-24T16:00:01.215Z,147.18
2022-12-24T16:03:17.534Z,191.38
2022-12-24T16:06:22.685Z,195.60
2022-12-24T16:09:42.624Z,208.80
2022-12-24T16:12:45.964Z,191.63
2022-12-24T16:16:01.796Z,209.23
2022-12-24T16:19:07.752Z,138.18
2022-12-24T16:22:31.064Z,185.65
2022-12-24T16:25:34.373Z,209.13
2022-12-24T16:32:00.158Z,212.18
2022-12-24T16:35:07.092Z,116.25
2022-12-24T16:38:10.953Z,210.00
2022-12-24T16:41:14.501Z,179.65
2022-12-24T16:44:18.340Z,189.65
2022-12-24T16:47:28.607Z,194.40
2022-12-24T16:50:32.592Z,179.93
2022-12-24T16:57:00.719Z,203.13
2022-12-24T17:00:11.221Z,194.40
2022-12-24T17:03:15.453Z,175.38
2022-12-24T17:06:19.785Z,154.98
2022-12-24T17:09:23.122Z,182.80
2022-12-24T17:12:27.302Z,216.18
2022-12-24T17:15:31.167Z,216.38
2022-12-24T17:18:35.288Z,188.48
2022-12-24T17:21:39.075Z,171.68
2022-12-24T17:24:43.296Z,137.55
2022-12-24T17:27:47.012Z,155.93
2022-12-24T17:30:51.087Z,165.88
2022-12-24T17:33:54.980Z,143.70
2022-12-24T17:36:58.828Z,159.32
2022-12-24T17:40:02.754Z,237.13
2022-12-24T17:43:06.110Z,175.80
2022-12-24T17:46:11.607Z,235.70
2022-12-24T17:49:14.885Z,224.65
2022-12-24T17:52:18.095Z,252.40
2022-12-24T17:55:23.219Z,218.27
2022-12-24T17:58:26.442Z,193.02
2022-12-24T18:01:32.824Z,192.23
2022-12-24T18:04:36.194Z,232.23
2022-12-24T18:07:39.575Z,194.00
2022-12-24T18:10:43.200Z,191.98
2022-12-24T18:13:47.258Z,162.68
2022-12-24T18:16:50.627Z,239.70
2022-12-24T18:19:54.464Z,218.43
2022-12-24T18:26:20.962Z,210.45
2022-12-24T18:29:24.735Z,199.85
2022-12-24T18:32:27.975Z,213.98
2022-12-24T18:35:31.084Z,243.68
2022-12-24T18:38:35.248Z,214.93
2022-12-24T18:41:39.005Z,241.40
2022-12-24T18:44:43.406Z,213.68
2022-12-24T18:47:47.192Z,221.38
2022-12-24T18:50:59.437Z,180.40
2022-12-24T18:54:03.615Z,196.15
2022-12-24T18:57:08.136Z,165.55
2022-12-24T19:00:11.937Z,155.15
2022-12-24T19:03:16.730Z,183.82
2022-12-24T19:06:21.995Z,164.55
2022-12-24T19:09:26.052Z,256.33
2022-12-24T19:12:29.718Z,218.35
2022-12-24T19:15:35.969Z,215.93
2022-12-24T19:18:40.039Z,205.52
2022-12-24T19:21:44.343Z,178.45
2022-12-24T19:24:48.093Z,157.52
2022-12-24T19:27:52.101Z,158.45
2022-12-24T19:30:55.213Z,173.13
2022-12-24T19:33:58.436Z,204.68
2022-12-24T19:37:01.961Z,139.98
2022-12-24T19:40:06.601Z,138.48
2022-12-24T19:43:10.271Z,168.02
2022-12-24T19:46:16.091Z,173.43
2022-12-24T19:49:19.894Z,143.02
2022-12-24T19:52:23.758Z,160.05
2022-12-24T19:58:48.104Z,95.80
2022-12-24T20:01:54.234Z,114.20
2022-12-24T20:04:57.922Z,83.18
2022-12-24T20:08:00.993Z,117.75
2022-12-24T20:11:10.199Z,125.97
2022-12-24T20:14:13.455Z,74.95
2022-12-24T20:17:16.557Z,124.40
2022-12-24T20:20:20.212Z,97.82
2022-12-24T20:23:23.678Z,93.10
2022-12-24T20:26:29.346Z,68.47
2022-12-24T20:29:33.649Z,59.95
2022-12-24T20:32:36.776Z,91.63
2022-12-24T20:35:40.175Z,71.75
2022-12-24T20:38:47.052Z,78.60
2022-12-24T20:41:50.178Z,102.05
2022-12-24T20:44:54.013Z,96.38
2022-12-24T20:47:57.986Z,83.18
2022-12-24T20:51:07.791Z,77.80
2022-12-24T20:54:12.421Z,82.47
2022-12-24T20:57:21.660Z,109.93
2022-12-24T21:03:48.991Z,94.10
2022-12-24T21:06:52.678Z,100.20
2022-12-24T21:09:56.887Z,113.60
2022-12-24T21:13:00.810Z,114.22
2022-12-24T21:16:05.044Z,76.10
2022-12-24T21:19:12.454Z,77.78
2022-12-24T21:22:19.583Z,57.45
2022-12-24T21:25:22.619Z,54.08
2022-12-24T21:28:26.002Z,67.20
2022-12-24T21:31:30.054Z,36.70
2022-12-24T21:34:34.007Z,53.10
2022-12-24T21:37:37.635Z,44.80
2022-12-24T21:40:40.966Z,77.57
2022-12-24T21:43:45.625Z,62.80
2022-12-24T21:46:50.685Z,78.05
2022-12-24T21:50:12.896Z,63.53
2022-12-24T21:53:35.693Z,82.22
2022-12-24T21:56:58.377Z,76.80
2022-12-24T22:00:22.536Z,101.65
2022-12-24T22:03:26.351Z,96.00
2022-12-24T22:06:49.742Z,107.60
2022-12-24T22:13:33.403Z,117.65
2022-12-24T22:16:36.774Z,106.15
2022-12-24T22:19:39.855Z,113.95
2022-12-24T22:22:43.033Z,105.53
2022-12-24T22:25:47.209Z,150.50
2022-12-24T22:28:50.314Z,152.38
2022-12-24T22:31:54.369Z,157.57
2022-12-24T22:34:58.398Z,134.15
2022-12-24T22:38:01.887Z,147.10
2022-12-24T22:41:09.817Z,121.07
2022-12-24T22:44:13.572Z,135.00
2022-12-24T22:47:16.542Z,122.28
2022-12-24T22:50:20.156Z,112.13
2022-12-24T22:53:23.508Z,142.95
2022-12-24T22:56:27.050Z,118.68
2022-12-24T22:59:30.089Z,119.82
2022-12-24T23:02:33.708Z,121.55
2022-12-24T23:05:38.298Z,146.15
2022-12-24T23:08:41.396Z,137.20
2022-12-24T23:11:45.928Z,145.20
2022-12-24T23:14:59.181Z,121.63
2022-12-24T23:18:05.752Z,151.73
2022-12-24T23:21:09.375Z,132.35
2022-12-24T23:24:12.530Z,125.22
2022-12-24T23:27:16.360Z,110.78
2022-12-24T23:30:20.565Z,134.38
2022-12-24T23:33:24.590Z,122.78
2022-12-24T23:36:28.413Z,126.35
2022-12-24T23:39:33.504Z,121.88
2022-12-24T23:42:37.486Z,99.22
2022-12-24T23:49:00.780Z,115.40
2022-12-24T23:52:05.099Z,103.22
2022-12-24T23:55:08.890Z,132.93
2022-12-24T23:58:17.023Z,126.28
